sensor_id;sensor_type;location;lat;lon;timestamp;temperature;humidity
39665;DHT22;26679;50.872;4.332;2023-05-10T00:00:21;14.00;99.90
39665;DHT22;26679;50.872;4.332;2023-05-10T00:02:47;14.00;99.90
39665;DHT22;26679;50.872;4.332;2023-05-10T00:05:13;13.90;99.90
39665;DHT22;26679;50.872;4.332;2023-05-10T00:07:38;13.90;99.90
39665;DHT22;26679;50.872;4.332;2023-05-10T00:10:04;13.90;99.90
39665;DHT22;26679;50.872;4.332;2023-05-10T00:12:30;14.00;99.90
39665;DHT22;26679;50.872;4.332;2023-05-10T00:14:55;14.00;99.90
39665;DHT22;26679;50.872;4.332;2023-05-10T00:17:21;14.00;99.90
39665;DHT22;26679;50.872;4.332;2023-05-10T00:19:46;14.00;99.90
39665;DHT22;26679;50.872;4.332;2023-05-10T00:22:12;13.80;99.90
39665;DHT22;26679;50.872;4.332;2023-05-10T00:24:37;13.80;99.90
39665;DHT22;26679;50.872;4.332;2023-05-10T00:27:03;13.80;99.90
39665;DHT22;26679;50.872;4.332;2023-05-10T00:29:29;13.80;99.90
39665;DHT22;26679;50.872;4.332;2023-05-10T00:31:54;13.90;99.90
39665;DHT22;26679;50.872;4.332;2023-05-10T00:34:20;13.90;99.90
39665;DHT22;26679;50.872;4.332;2023-05-10T00:36:46;14.00;99.90
39665;DHT22;26679;50.872;4.332;2023-05-10T00:39:11;13.80;99.90
39665;DHT22;26679;50.872;4.332;2023-05-10T00:41:37;13.80;99.90
39665;DHT22;26679;50.872;4.332;2023-05-10T00:44:03;13.80;99.90
39665;DHT22;26679;50.872;4.332;2023-05-10T00:46:29;13.80;99.90
39665;DHT22;26679;50.872;4.332;2023-05-10T00:48:55;13.90;99.90
39665;DHT22;26679;50.872;4.332;2023-05-10T00:51:20;13.90;99.90
39665;DHT22;26679;50.872;4.332;2023-05-10T00:53:46;13.80;99.90
39665;DHT22;26679;50.872;4.332;2023-05-10T00:56:12;13.70;99.90
39665;DHT22;26679;50.872;4.332;2023-05-10T00:58:38;13.70;99.90
39665;DHT22;26679;50.872;4.332;2023-05-10T01:01:04;13.70;99.90
39665;DHT22;26679;50.872;4.332;2023-05-10T01:03:30;13.80;99.90
39665;DHT22;26679;50.872;4.332;2023-05-10T01:05:56;13.80;99.90
39665;DHT22;26679;50.872;4.332;2023-05-10T01:08:21;13.90;99.90
39665;DHT22;26679;50.872;4.332;2023-05-10T01:10:47;14.00;99.90
39665;DHT22;26679;50.872;4.332;2023-05-10T01:13:17;14.00;99.90
39665;DHT22;26679;50.872;4.332;2023-05-10T01:15:43;13.90;99.90
39665;DHT22;26679;50.872;4.332;2023-05-10T01:18:10;13.90;99.90
39665;DHT22;26679;50.872;4.332;2023-05-10T01:20:37;13.90;99.90
39665;DHT22;26679;50.872;4.332;2023-05-10T01:46:41;13.70;99.90
39665;DHT22;26679;50.872;4.332;2023-05-10T01:49:11;13.70;99.90
39665;DHT22;26679;50.872;4.332;2023-05-10T01:51:43;13.90;99.90
39665;DHT22;26679;50.872;4.332;2023-05-10T01:54:09;13.80;99.90
39665;DHT22;26679;50.872;4.332;2023-05-10T01:56:37;13.90;99.90
39665;DHT22;26679;50.872;4.332;2023-05-10T01:59:04;13.90;99.90
39665;DHT22;26679;50.872;4.332;2023-05-10T02:01:31;13.90;99.90
39665;DHT22;26679;50.872;4.332;2023-05-10T02:03:57;13.90;99.90
39665;DHT22;26679;50.872;4.332;2023-05-10T02:06:23;13.80;99.90
39665;DHT22;26679;50.872;4.332;2023-05-10T02:08:49;13.80;99.90
39665;DHT22;26679;50.872;4.332;2023-05-10T02:11:15;13.70;99.90
39665;DHT22;26679;50.872;4.332;2023-05-10T02:13:42;13.80;99.90
39665;DHT22;26679;50.872;4.332;2023-05-10T02:16:08;13.70;99.90
39665;DHT22;26679;50.872;4.332;2023-05-10T02:18:34;13.70;99.90
39665;DHT22;26679;50.872;4.332;2023-05-10T02:21:02;13.70;99.90
39665;DHT22;26679;50.872;4.332;2023-05-10T02:23:27;13.80;99.90
39665;DHT22;26679;50.872;4.332;2023-05-10T02:25:53;13.90;99.90
39665;DHT22;26679;50.872;4.332;2023-05-10T02:28:20;13.90;99.90
39665;DHT22;26679;50.872;4.332;2023-05-10T02:30:46;13.90;99.90
39665;DHT22;26679;50.872;4.332;2023-05-10T02:33:12;13.90;99.90
39665;DHT22;26679;50.872;4.332;2023-05-10T02:35:38;13.90;99.90
39665;DHT22;26679;50.872;4.332;2023-05-10T02:38:04;13.90;99.90
39665;DHT22;26679;50.872;4.332;2023-05-10T02:40:31;14.00;99.90
39665;DHT22;26679;50.872;4.332;2023-05-10T02:42:57;14.00;99.90
39665;DHT22;26679;50.872;4.332;2023-05-10T02:45:25;13.90;99.90
39665;DHT22;26679;50.872;4.332;2023-05-10T02:47:53;13.90;99.90
39665;DHT22;26679;50.872;4.332;2023-05-10T02:50:19;13.90;99.90
39665;DHT22;26679;50.872;4.332;2023-05-10T02:52:51;13.90;99.90
39665;DHT22;26679;50.872;4.332;2023-05-10T02:55:21;13.90;99.90
39665;DHT22;26679;50.872;4.332;2023-05-10T02:57:58;13.90;99.90
39665;DHT22;26679;50.872;4.332;2023-05-10T03:00:24;13.90;99.90
39665;DHT22;26679;50.872;4.332;2023-05-10T03:02:50;13.80;99.90
39665;DHT22;26679;50.872;4.332;2023-05-10T03:05:15;13.90;99.90
39665;DHT22;26679;50.872;4.332;2023-05-10T03:07:41;13.90;99.90
39665;DHT22;26679;50.872;4.332;2023-05-10T03:10:07;13.80;99.90
39665;DHT22;26679;50.872;4.332;2023-05-10T03:17:52;13.60;99.90
39665;DHT22;26679;50.872;4.332;2023-05-10T03:20:41;13.40;99.90
39665;DHT22;26679;50.872;4.332;2023-05-10T03:25:51;13.30;99.90
39665;DHT22;26679;50.872;4.332;2023-05-10T03:28:17;13.30;99.90
39665;DHT22;26679;50.872;4.332;2023-05-10T03:30:43;13.20;99.90
39665;DHT22;26679;50.872;4.332;2023-05-10T03:33:10;13.30;99.90
39665;DHT22;26679;50.872;4.332;2023-05-10T03:35:36;13.20;99.90
39665;DHT22;26679;50.872;4.332;2023-05-10T03:38:01;13.20;99.90
39665;DHT22;26679;50.872;4.332;2023-05-10T03:40:27;13.20;99.90
39665;DHT22;26679;50.872;4.332;2023-05-10T03:42:57;13.30;99.90
39665;DHT22;26679;50.872;4.332;2023-05-10T03:45:23;13.20;99.90
39665;DHT22;26679;50.872;4.332;2023-05-10T03:47:49;13.30;99.90
39665;DHT22;26679;50.872;4.332;2023-05-10T03:50:14;13.30;99.90
39665;DHT22;26679;50.872;4.332;2023-05-10T03:52:40;13.20;99.90
39665;DHT22;26679;50.872;4.332;2023-05-10T03:55:05;13.20;99.90
39665;DHT22;26679;50.872;4.332;2023-05-10T03:57:31;13.20;99.90
39665;DHT22;26679;50.872;4.332;2023-05-10T03:59:57;13.20;99.90
39665;DHT22;26679;50.872;4.332;2023-05-10T04:02:22;13.20;99.90
39665;DHT22;26679;50.872;4.332;2023-05-10T04:04:48;13.00;99.90
39665;DHT22;26679;50.872;4.332;2023-05-10T04:07:14;13.30;99.90
39665;DHT22;26679;50.872;4.332;2023-05-10T04:09:39;13.50;99.90
39665;DHT22;26679;50.872;4.332;2023-05-10T04:12:05;13.50;99.90
39665;DHT22;26679;50.872;4.332;2023-05-10T04:14:31;13.50;99.90
39665;DHT22;26679;50.872;4.332;2023-05-10T04:16:56;13.50;99.90
39665;DHT22;26679;50.872;4.332;2023-05-10T04:19:22;13.60;99.90
39665;DHT22;26679;50.872;4.332;2023-05-10T04:21:47;13.50;99.90
39665;DHT22;26679;50.872;4.332;2023-05-10T04:24:13;13.40;99.90
39665;DHT22;26679;50.872;4.332;2023-05-10T04:26:38;13.40;99.90
39665;DHT22;26679;50.872;4.332;2023-05-10T04:29:04;13.40;99.90
39665;DHT22;26679;50.872;4.332;2023-05-10T04:31:29;13.50;99.90
39665;DHT22;26679;50.872;4.332;2023-05-10T04:33:55;13.50;99.90
39665;DHT22;26679;50.872;4.332;2023-05-10T04:36:23;13.50;99.90
39665;DHT22;26679;50.872;4.332;2023-05-10T04:38:49;13.50;99.90
39665;DHT22;26679;50.872;4.332;2023-05-10T04:41:14;13.50;99.90
39665;DHT22;26679;50.872;4.332;2023-05-10T04:43:40;13.40;99.90
39665;DHT22;26679;50.872;4.332;2023-05-10T04:46:05;13.40;99.90
39665;DHT22;26679;50.872;4.332;2023-05-10T04:48:31;13.50;99.90
39665;DHT22;26679;50.872;4.332;2023-05-10T04:50:56;13.50;99.90
39665;DHT22;26679;50.872;4.332;2023-05-10T04:53:22;13.50;99.90
39665;DHT22;26679;50.872;4.332;2023-05-10T04:55:47;13.50;99.90
39665;DHT22;26679;50.872;4.332;2023-05-10T04:58:14;13.60;99.90
39665;DHT22;26679;50.872;4.332;2023-05-10T05:00:39;13.60;99.90
39665;DHT22;26679;50.872;4.332;2023-05-10T05:03:05;13.50;99.90
39665;DHT22;26679;50.872;4.332;2023-05-10T05:05:30;13.40;99.90
39665;DHT22;26679;50.872;4.332;2023-05-10T05:07:56;13.40;99.90
39665;DHT22;26679;50.872;4.332;2023-05-10T05:10:21;13.50;99.90
39665;DHT22;26679;50.872;4.332;2023-05-10T05:12:47;13.50;99.90
39665;DHT22;26679;50.872;4.332;2023-05-10T05:15:12;13.40;99.90
39665;DHT22;26679;50.872;4.332;2023-05-10T05:17:38;13.50;99.90
39665;DHT22;26679;50.872;4.332;2023-05-10T05:20:04;13.30;99.90
39665;DHT22;26679;50.872;4.332;2023-05-10T05:22:29;13.20;99.90
39665;DHT22;26679;50.872;4.332;2023-05-10T05:24:55;13.20;99.90
39665;DHT22;26679;50.872;4.332;2023-05-10T05:27:21;13.00;99.90
39665;DHT22;26679;50.872;4.332;2023-05-10T05:29:50;13.00;99.90
39665;DHT22;26679;50.872;4.332;2023-05-10T05:32:15;13.00;99.90
39665;DHT22;26679;50.872;4.332;2023-05-10T05:34:41;12.90;99.90
39665;DHT22;26679;50.872;4.332;2023-05-10T05:37:06;12.90;99.90
39665;DHT22;26679;50.872;4.332;2023-05-10T05:39:32;12.90;99.90
39665;DHT22;26679;50.872;4.332;2023-05-10T05:41:57;12.90;99.90
39665;DHT22;26679;50.872;4.332;2023-05-10T05:44:23;12.90;99.90
39665;DHT22;26679;50.872;4.332;2023-05-10T05:46:49;12.90;99.90
39665;DHT22;26679;50.872;4.332;2023-05-10T05:49:14;12.90;99.90
39665;DHT22;26679;50.872;4.332;2023-05-10T05:51:40;13.00;99.90
39665;DHT22;26679;50.872;4.332;2023-05-10T05:54:05;13.00;99.90
39665;DHT22;26679;50.872;4.332;2023-05-10T05:56:31;13.10;99.90
39665;DHT22;26679;50.872;4.332;2023-05-10T05:58:58;13.00;99.90
39665;DHT22;26679;50.872;4.332;2023-05-10T06:01:23;12.90;99.90
39665;DHT22;26679;50.872;4.332;2023-05-10T06:03:49;13.00;99.90
39665;DHT22;26679;50.872;4.332;2023-05-10T06:06:14;13.00;99.90
39665;DHT22;26679;50.872;4.332;2023-05-10T06:08:40;13.00;99.90
39665;DHT22;26679;50.872;4.332;2023-05-10T06:11:05;13.00;99.90
39665;DHT22;26679;50.872;4.332;2023-05-10T06:13:31;13.00;99.90
39665;DHT22;26679;50.872;4.332;2023-05-10T06:15:58;12.90;99.90
39665;DHT22;26679;50.872;4.332;2023-05-10T06:18:24;13.00;99.90
39665;DHT22;26679;50.872;4.332;2023-05-10T06:20:49;12.80;99.90
39665;DHT22;26679;50.872;4.332;2023-05-10T06:23:15;12.80;99.90
39665;DHT22;26679;50.872;4.332;2023-05-10T06:25:41;12.80;99.90
39665;DHT22;26679;50.872;4.332;2023-05-10T06:28:06;12.80;99.90
39665;DHT22;26679;50.872;4.332;2023-05-10T06:30:32;12.90;99.90
39665;DHT22;26679;50.872;4.332;2023-05-10T06:32:57;12.80;99.90
39665;DHT22;26679;50.872;4.332;2023-05-10T06:35:23;12.70;99.90
39665;DHT22;26679;50.872;4.332;2023-05-10T06:37:49;12.70;99.90
39665;DHT22;26679;50.872;4.332;2023-05-10T06:40:14;12.70;99.90
39665;DHT22;26679;50.872;4.332;2023-05-10T06:42:40;12.80;99.90
39665;DHT22;26679;50.872;4.332;2023-05-10T06:45:06;12.80;99.90
39665;DHT22;26679;50.872;4.332;2023-05-10T06:47:32;12.70;99.90
39665;DHT22;26679;50.872;4.332;2023-05-10T06:49:57;12.80;99.90
39665;DHT22;26679;50.872;4.332;2023-05-10T06:52:23;12.80;99.90
39665;DHT22;26679;50.872;4.332;2023-05-10T06:54:49;12.90;99.90
39665;DHT22;26679;50.872;4.332;2023-05-10T06:57:15;12.90;99.90
39665;DHT22;26679;50.872;4.332;2023-05-10T06:59:40;12.90;99.90
39665;DHT22;26679;50.872;4.332;2023-05-10T07:02:06;12.90;99.90
39665;DHT22;26679;50.872;4.332;2023-05-10T07:04:31;13.00;99.90
39665;DHT22;26679;50.872;4.332;2023-05-10T07:06:57;13.10;99.90
39665;DHT22;26679;50.872;4.332;2023-05-10T07:09:22;13.10;99.90
39665;DHT22;26679;50.872;4.332;2023-05-10T07:11:49;13.00;99.90
39665;DHT22;26679;50.872;4.332;2023-05-10T07:14:15;13.00;99.90
39665;DHT22;26679;50.872;4.332;2023-05-10T07:16:40;13.00;99.90
39665;DHT22;26679;50.872;4.332;2023-05-10T07:19:06;13.20;99.90
39665;DHT22;26679;50.872;4.332;2023-05-10T07:21:32;13.20;99.90
39665;DHT22;26679;50.872;4.332;2023-05-10T07:23:57;13.20;99.90
39665;DHT22;26679;50.872;4.332;2023-05-10T07:26:23;13.30;99.90
39665;DHT22;26679;50.872;4.332;2023-05-10T07:28:50;13.30;99.90
39665;DHT22;26679;50.872;4.332;2023-05-10T07:31:16;13.30;99.90
39665;DHT22;26679;50.872;4.332;2023-05-10T07:33:41;13.30;99.90
39665;DHT22;26679;50.872;4.332;2023-05-10T07:36:07;13.20;99.90
39665;DHT22;26679;50.872;4.332;2023-05-10T07:38:32;13.10;99.90
39665;DHT22;26679;50.872;4.332;2023-05-10T07:40:58;13.00;99.90
39665;DHT22;26679;50.872;4.332;2023-05-10T07:43:23;13.00;99.90
39665;DHT22;26679;50.872;4.332;2023-05-10T07:45:49;13.10;99.90
39665;DHT22;26679;50.872;4.332;2023-05-10T07:48:14;13.20;99.90
39665;DHT22;26679;50.872;4.332;2023-05-10T07:50:40;13.30;99.90
39665;DHT22;26679;50.872;4.332;2023-05-10T07:53:05;13.20;99.90
39665;DHT22;26679;50.872;4.332;2023-05-10T07:55:31;13.20;99.90
39665;DHT22;26679;50.872;4.332;2023-05-10T07:57:57;13.30;99.90
39665;DHT22;26679;50.872;4.332;2023-05-10T08:00:22;13.40;99.90
39665;DHT22;26679;50.872;4.332;2023-05-10T08:02:48;13.50;99.90
39665;DHT22;26679;50.872;4.332;2023-05-10T08:05:13;13.40;99.90
39665;DHT22;26679;50.872;4.332;2023-05-10T08:07:39;13.50;99.90
39665;DHT22;26679;50.872;4.332;2023-05-10T08:10:05;13.60;99.90
39665;DHT22;26679;50.872;4.332;2023-05-10T08:12:31;13.80;99.90
39665;DHT22;26679;50.872;4.332;2023-05-10T08:14:56;13.90;99.90
39665;DHT22;26679;50.872;4.332;2023-05-10T08:17:22;13.80;99.90
39665;DHT22;26679;50.872;4.332;2023-05-10T08:19:47;13.90;99.90
39665;DHT22;26679;50.872;4.332;2023-05-10T08:22:13;13.90;99.90
39665;DHT22;26679;50.872;4.332;2023-05-10T08:24:38;13.80;99.90
39665;DHT22;26679;50.872;4.332;2023-05-10T08:27:04;13.80;99.90
39665;DHT22;26679;50.872;4.332;2023-05-10T08:29:30;13.80;99.90
39665;DHT22;26679;50.872;4.332;2023-05-10T08:31:56;13.90;99.90
39665;DHT22;26679;50.872;4.332;2023-05-10T08:34:21;13.90;99.90
39665;DHT22;26679;50.872;4.332;2023-05-10T08:36:47;13.90;99.90
39665;DHT22;26679;50.872;4.332;2023-05-10T08:39:12;13.90;99.90
39665;DHT22;26679;50.872;4.332;2023-05-10T08:41:39;13.80;99.90
39665;DHT22;26679;50.872;4.332;2023-05-10T08:44:05;13.80;99.90
39665;DHT22;26679;50.872;4.332;2023-05-10T08:46:33;13.80;99.90
39665;DHT22;26679;50.872;4.332;2023-05-10T08:48:59;13.90;99.90
39665;DHT22;26679;50.872;4.332;2023-05-10T08:51:27;13.80;99.90
39665;DHT22;26679;50.872;4.332;2023-05-10T08:53:55;13.80;99.90
39665;DHT22;26679;50.872;4.332;2023-05-10T08:56:20;13.80;99.90
39665;DHT22;26679;50.872;4.332;2023-05-10T08:58:47;13.80;99.90
39665;DHT22;26679;50.872;4.332;2023-05-10T09:01:14;13.80;99.90
39665;DHT22;26679;50.872;4.332;2023-05-10T09:03:41;13.60;99.90
39665;DHT22;26679;50.872;4.332;2023-05-10T09:06:07;13.50;99.90
39665;DHT22;26679;50.872;4.332;2023-05-10T09:08:33;13.40;99.90
39665;DHT22;26679;50.872;4.332;2023-05-10T09:10:59;13.60;99.90
39665;DHT22;26679;50.872;4.332;2023-05-10T09:13:26;13.60;99.90
39665;DHT22;26679;50.872;4.332;2023-05-10T09:15:52;13.40;99.90
39665;DHT22;26679;50.872;4.332;2023-05-10T09:18:18;13.30;99.90
39665;DHT22;26679;50.872;4.332;2023-05-10T09:20:43;13.30;99.90
39665;DHT22;26679;50.872;4.332;2023-05-10T09:23:09;13.30;99.90
39665;DHT22;26679;50.872;4.332;2023-05-10T09:25:34;13.20;99.90
39665;DHT22;26679;50.872;4.332;2023-05-10T09:28:00;13.20;99.90
39665;DHT22;26679;50.872;4.332;2023-05-10T09:30:26;13.20;99.90
39665;DHT22;26679;50.872;4.332;2023-05-10T09:32:53;13.10;99.90
39665;DHT22;26679;50.872;4.332;2023-05-10T09:35:20;13.10;99.90
39665;DHT22;26679;50.872;4.332;2023-05-10T09:37:46;13.20;99.90
39665;DHT22;26679;50.872;4.332;2023-05-10T09:40:14;13.20;99.90
39665;DHT22;26679;50.872;4.332;2023-05-10T09:42:41;13.20;99.90
39665;DHT22;26679;50.872;4.332;2023-05-10T09:45:07;13.30;99.90
39665;DHT22;26679;50.872;4.332;2023-05-10T09:47:33;13.20;99.90
39665;DHT22;26679;50.872;4.332;2023-05-10T09:49:59;13.20;99.90
39665;DHT22;26679;50.872;4.332;2023-05-10T09:52:29;13.30;99.90
39665;DHT22;26679;50.872;4.332;2023-05-10T09:54:54;13.30;99.90
39665;DHT22;26679;50.872;4.332;2023-05-10T09:57:20;13.20;99.90
39665;DHT22;26679;50.872;4.332;2023-05-10T09:59:47;13.30;99.90
39665;DHT22;26679;50.872;4.332;2023-05-10T10:02:12;13.20;99.90
39665;DHT22;26679;50.872;4.332;2023-05-10T10:04:41;13.30;99.90
39665;DHT22;26679;50.872;4.332;2023-05-10T10:07:07;12.10;99.90
39665;DHT22;26679;50.872;4.332;2023-05-10T10:09:33;13.30;99.90
39665;DHT22;26679;50.872;4.332;2023-05-10T10:11:59;13.40;99.90
39665;DHT22;26679;50.872;4.332;2023-05-10T10:14:25;13.40;99.90
39665;DHT22;26679;50.872;4.332;2023-05-10T10:16:51;13.30;99.90
39665;DHT22;26679;50.872;4.332;2023-05-10T10:19:18;13.30;99.90
39665;DHT22;26679;50.872;4.332;2023-05-10T10:21:43;13.30;99.90
39665;DHT22;26679;50.872;4.332;2023-05-10T10:24:09;13.40;99.90
39665;DHT22;26679;50.872;4.332;2023-05-10T10:26:34;13.30;99.90
39665;DHT22;26679;50.872;4.332;2023-05-10T10:31:43;13.30;99.90
39665;DHT22;26679;50.872;4.332;2023-05-10T10:34:11;13.40;99.90
39665;DHT22;26679;50.872;4.332;2023-05-10T10:36:43;13.40;99.90
39665;DHT22;26679;50.872;4.332;2023-05-10T10:39:10;13.50;99.90
39665;DHT22;26679;50.872;4.332;2023-05-10T10:41:36;13.60;99.90
39665;DHT22;26679;50.872;4.332;2023-05-10T10:49:17;13.70;99.90
39665;DHT22;26679;50.872;4.332;2023-05-10T10:52:12;13.80;99.90
39665;DHT22;26679;50.872;4.332;2023-05-10T10:54:28;13.90;99.90
39665;DHT22;26679;50.872;4.332;2023-05-10T10:59:30;14.20;99.90
39665;DHT22;26679;50.872;4.332;2023-05-10T11:01:55;14.20;99.90
39665;DHT22;26679;50.872;4.332;2023-05-10T11:04:21;14.20;99.90
39665;DHT22;26679;50.872;4.332;2023-05-10T11:06:46;14.20;99.90
39665;DHT22;26679;50.872;4.332;2023-05-10T11:09:12;14.20;99.90
39665;DHT22;26679;50.872;4.332;2023-05-10T11:14:14;14.10;99.90
39665;DHT22;26679;50.872;4.332;2023-05-10T11:16:44;14.10;99.90
39665;DHT22;26679;50.872;4.332;2023-05-10T11:19:11;14.10;99.90
39665;DHT22;26679;50.872;4.332;2023-05-10T11:24:14;14.00;99.90
39665;DHT22;26679;50.872;4.332;2023-05-10T11:26:40;14.00;99.90
39665;DHT22;26679;50.872;4.332;2023-05-10T11:29:05;14.10;99.90
39665;DHT22;26679;50.872;4.332;2023-05-10T11:31:31;14.30;99.90
39665;DHT22;26679;50.872;4.332;2023-05-10T11:34:10;14.40;99.90
39665;DHT22;26679;50.872;4.332;2023-05-10T11:36:36;14.50;99.90
39665;DHT22;26679;50.872;4.332;2023-05-10T11:39:02;14.70;99.90
39665;DHT22;26679;50.872;4.332;2023-05-10T11:41:28;14.90;99.90
39665;DHT22;26679;50.872;4.332;2023-05-10T11:43:54;15.00;99.90
39665;DHT22;26679;50.872;4.332;2023-05-10T11:46:21;15.10;99.90
39665;DHT22;26679;50.872;4.332;2023-05-10T11:48:50;15.20;99.90
39665;DHT22;26679;50.872;4.332;2023-05-10T11:51:19;15.30;99.90
39665;DHT22;26679;50.872;4.332;2023-05-10T11:53:45;15.50;99.90
39665;DHT22;26679;50.872;4.332;2023-05-10T11:56:11;15.60;99.90
39665;DHT22;26679;50.872;4.332;2023-05-10T11:58:37;16.00;99.90
39665;DHT22;26679;50.872;4.332;2023-05-10T12:01:03;16.20;99.90
39665;DHT22;26679;50.872;4.332;2023-05-10T12:03:29;16.30;99.90
39665;DHT22;26679;50.872;4.332;2023-05-10T12:05:55;16.20;99.90
39665;DHT22;26679;50.872;4.332;2023-05-10T12:08:22;16.10;99.90
39665;DHT22;26679;50.872;4.332;2023-05-10T12:10:48;16.20;99.90
39665;DHT22;26679;50.872;4.332;2023-05-10T12:13:13;16.20;99.90
39665;DHT22;26679;50.872;4.332;2023-05-10T12:15:39;16.10;99.90
39665;DHT22;26679;50.872;4.332;2023-05-10T12:18:05;16.00;99.90
39665;DHT22;26679;50.872;4.332;2023-05-10T12:20:31;16.00;99.90
39665;DHT22;26679;50.872;4.332;2023-05-10T12:22:57;16.00;99.90
39665;DHT22;26679;50.872;4.332;2023-05-10T12:25:24;16.30;99.90
39665;DHT22;26679;50.872;4.332;2023-05-10T12:27:55;16.50;99.90
39665;DHT22;26679;50.872;4.332;2023-05-10T12:32:46;16.70;99.90
39665;DHT22;26679;50.872;4.332;2023-05-10T12:35:12;17.30;99.90
39665;DHT22;26679;50.872;4.332;2023-05-10T12:37:37;17.70;99.90
39665;DHT22;26679;50.872;4.332;2023-05-10T12:40:08;18.00;99.90
39665;DHT22;26679;50.872;4.332;2023-05-10T12:42:35;18.30;99.90
39665;DHT22;26679;50.872;4.332;2023-05-10T12:45:01;18.70;99.90
39665;DHT22;26679;50.872;4.332;2023-05-10T12:47:27;18.90;99.90
39665;DHT22;26679;50.872;4.332;2023-05-10T12:49:53;19.40;99.90
39665;DHT22;26679;50.872;4.332;2023-05-10T12:52:18;19.90;99.90
39665;DHT22;26679;50.872;4.332;2023-05-10T12:54:45;20.10;99.90
39665;DHT22;26679;50.872;4.332;2023-05-10T12:57:10;20.20;99.90
39665;DHT22;26679;50.872;4.332;2023-05-10T12:59:36;20.80;99.90
39665;DHT22;26679;50.872;4.332;2023-05-10T13:02:01;20.80;99.90
39665;DHT22;26679;50.872;4.332;2023-05-10T13:04:27;21.10;99.90
39665;DHT22;26679;50.872;4.332;2023-05-10T13:06:52;21.80;99.90
39665;DHT22;26679;50.872;4.332;2023-05-10T13:09:18;21.50;99.90
39665;DHT22;26679;50.872;4.332;2023-05-10T13:11:44;21.50;99.90
39665;DHT22;26679;50.872;4.332;2023-05-10T13:14:10;21.60;99.90
39665;DHT22;26679;50.872;4.332;2023-05-10T13:16:36;22.00;99.90
39665;DHT22;26679;50.872;4.332;2023-05-10T13:19:01;22.60;99.90
39665;DHT22;26679;50.872;4.332;2023-05-10T13:21:27;23.10;99.90
39665;DHT22;26679;50.872;4.332;2023-05-10T13:23:53;23.00;99.90
39665;DHT22;26679;50.872;4.332;2023-05-10T13:26:18;23.20;99.90
39665;DHT22;26679;50.872;4.332;2023-05-10T13:28:44;22.50;99.90
39665;DHT22;26679;50.872;4.332;2023-05-10T13:31:11;22.10;99.90
39665;DHT22;26679;50.872;4.332;2023-05-10T13:33:36;22.60;99.90
39665;DHT22;26679;50.872;4.332;2023-05-10T13:36:02;23.20;99.90
39665;DHT22;26679;50.872;4.332;2023-05-10T13:38:27;23.20;99.90
39665;DHT22;26679;50.872;4.332;2023-05-10T13:40:53;23.20;99.90
39665;DHT22;26679;50.872;4.332;2023-05-10T13:43:18;22.90;99.80
39665;DHT22;26679;50.872;4.332;2023-05-10T13:45:44;22.50;99.90
39665;DHT22;26679;50.872;4.332;2023-05-10T13:48:10;22.10;99.90
39665;DHT22;26679;50.872;4.332;2023-05-10T13:50:35;22.00;99.90
39665;DHT22;26679;50.872;4.332;2023-05-10T13:53:01;21.70;99.90
39665;DHT22;26679;50.872;4.332;2023-05-10T13:55:26;21.30;99.90
39665;DHT22;26679;50.872;4.332;2023-05-10T13:57:52;21.00;99.90
39665;DHT22;26679;50.872;4.332;2023-05-10T14:00:17;20.70;99.90
39665;DHT22;26679;50.872;4.332;2023-05-10T14:02:43;20.40;99.90
39665;DHT22;26679;50.872;4.332;2023-05-10T14:05:08;19.80;99.90
39665;DHT22;26679;50.872;4.332;2023-05-10T14:07:34;19.30;99.90
39665;DHT22;26679;50.872;4.332;2023-05-10T14:09:59;19.00;99.90
39665;DHT22;26679;50.872;4.332;2023-05-10T14:12:25;18.80;99.90
39665;DHT22;26679;50.872;4.332;2023-05-10T14:14:51;19.10;99.90
39665;DHT22;26679;50.872;4.332;2023-05-10T14:17:17;19.20;99.90
39665;DHT22;26679;50.872;4.332;2023-05-10T14:19:43;18.90;99.90
39665;DHT22;26679;50.872;4.332;2023-05-10T14:22:08;18.90;99.90
39665;DHT22;26679;50.872;4.332;2023-05-10T14:24:34;18.90;99.90
39665;DHT22;26679;50.872;4.332;2023-05-10T14:26:59;19.20;99.90
39665;DHT22;26679;50.872;4.332;2023-05-10T14:29:25;19.70;99.90
39665;DHT22;26679;50.872;4.332;2023-05-10T14:31:50;19.90;99.90
39665;DHT22;26679;50.872;4.332;2023-05-10T14:34:16;19.80;99.90
39665;DHT22;26679;50.872;4.332;2023-05-10T14:36:41;19.80;99.90
39665;DHT22;26679;50.872;4.332;2023-05-10T14:39:07;19.70;99.90
39665;DHT22;26679;50.872;4.332;2023-05-10T14:41:35;19.50;99.90
39665;DHT22;26679;50.872;4.332;2023-05-10T14:44:00;19.30;99.90
39665;DHT22;26679;50.872;4.332;2023-05-10T14:46:28;19.10;99.90
39665;DHT22;26679;50.872;4.332;2023-05-10T14:48:55;18.90;99.90
39665;DHT22;26679;50.872;4.332;2023-05-10T14:51:20;18.50;99.90
39665;DHT22;26679;50.872;4.332;2023-05-10T14:53:47;18.20;99.90
39665;DHT22;26679;50.872;4.332;2023-05-10T14:56:14;17.90;99.90
39665;DHT22;26679;50.872;4.332;2023-05-10T14:58:40;17.70;99.90
39665;DHT22;26679;50.872;4.332;2023-05-10T15:01:05;17.80;99.90
39665;DHT22;26679;50.872;4.332;2023-05-10T15:03:32;17.60;99.90
39665;DHT22;26679;50.872;4.332;2023-05-10T15:05:57;17.10;99.90
39665;DHT22;26679;50.872;4.332;2023-05-10T15:08:23;16.80;99.90
39665;DHT22;26679;50.872;4.332;2023-05-10T15:10:50;16.40;99.90
39665;DHT22;26679;50.872;4.332;2023-05-10T15:13:15;16.00;99.90
39665;DHT22;26679;50.872;4.332;2023-05-10T15:15:41;15.70;99.90
39665;DHT22;26679;50.872;4.332;2023-05-10T15:18:06;15.40;99.90
39665;DHT22;26679;50.872;4.332;2023-05-10T15:20:32;15.40;99.90
39665;DHT22;26679;50.872;4.332;2023-05-10T15:22:57;15.50;99.90
39665;DHT22;26679;50.872;4.332;2023-05-10T15:25:23;15.40;99.90
39665;DHT22;26679;50.872;4.332;2023-05-10T15:27:49;15.60;99.90
39665;DHT22;26679;50.872;4.332;2023-05-10T15:30:14;15.70;99.90
39665;DHT22;26679;50.872;4.332;2023-05-10T15:32:40;15.80;99.90
39665;DHT22;26679;50.872;4.332;2023-05-10T15:35:07;15.90;99.90
39665;DHT22;26679;50.872;4.332;2023-05-10T15:37:33;16.10;99.90
39665;DHT22;26679;50.872;4.332;2023-05-10T15:39:58;16.30;99.90
39665;DHT22;26679;50.872;4.332;2023-05-10T15:42:29;16.50;99.90
39665;DHT22;26679;50.872;4.332;2023-05-10T15:44:55;16.80;99.90
39665;DHT22;26679;50.872;4.332;2023-05-10T15:47:21;17.00;99.90
39665;DHT22;26679;50.872;4.332;2023-05-10T15:49:46;17.20;99.90
39665;DHT22;26679;50.872;4.332;2023-05-10T15:52:12;17.50;99.90
39665;DHT22;26679;50.872;4.332;2023-05-10T15:54:38;17.80;99.90
39665;DHT22;26679;50.872;4.332;2023-05-10T15:57:03;17.90;99.90
39665;DHT22;26679;50.872;4.332;2023-05-10T15:59:29;18.10;99.90
39665;DHT22;26679;50.872;4.332;2023-05-10T16:01:55;18.20;99.90
39665;DHT22;26679;50.872;4.332;2023-05-10T16:04:21;18.60;99.90
39665;DHT22;26679;50.872;4.332;2023-05-10T16:06:47;19.00;99.90
39665;DHT22;26679;50.872;4.332;2023-05-10T16:09:12;19.20;99.90
39665;DHT22;26679;50.872;4.332;2023-05-10T16:11:38;19.40;99.90